createdAt,value
2024-05-09T00:01:10.860Z,5.08
2024-05-09T00:31:17.838Z,4.66
2024-05-09T01:01:22.188Z,4.26
2024-05-09T01:31:25.947Z,3.88
2024-05-09T02:01:31.466Z,3.28
2024-05-09T02:31:54.261Z,2.95
2024-05-09T03:01:59.712Z,2.49
2024-05-09T03:32:02.375Z,2.02
2024-05-09T04:02:08.228Z,1.83
2024-05-09T04:32:11.212Z,1.93
2024-05-09T05:02:15.820Z,2.56
2024-05-09T05:32:19.748Z,3.69
2024-05-09T06:02:24.402Z,4.97
2024-05-09T06:32:26.963Z,6.44
2024-05-09T07:02:31.972Z,7.95
2024-05-09T07:32:35.118Z,9.28
2024-05-09T08:02:39.039Z,10.40
2024-05-09T08:32:41.926Z,11.69
2024-05-09T09:02:45.702Z,12.95
2024-05-09T09:32:49.346Z,13.93
2024-05-09T10:02:52.515Z,14.81
2024-05-09T10:32:55.761Z,15.28
2024-05-09T11:02:59.881Z,15.33
2024-05-09T11:33:02.790Z,16.86
2024-05-09T12:03:07.302Z,18.11
2024-05-09T12:33:11.288Z,19.04
2024-05-09T13:03:19.377Z,19.59
2024-05-09T13:33:23.163Z,19.97
2024-05-09T14:03:28.329Z,19.90
2024-05-09T14:33:32.361Z,19.76
2024-05-09T15:03:35.448Z,19.60
2024-05-09T15:33:41.169Z,19.91
2024-05-09T16:03:47.355Z,20.17
2024-05-09T16:33:52.283Z,20.27
2024-05-09T17:03:55.759Z,18.91
2024-05-09T17:33:59.773Z,17.34
2024-05-09T18:04:05.268Z,15.76
2024-05-09T18:34:08.936Z,14.26
2024-05-09T19:04:12.346Z,12.73
2024-05-09T19:34:16.127Z,11.54
2024-05-09T20:04:21.383Z,10.45
2024-05-09T20:34:25.137Z,9.54
2024-05-09T21:04:30.756Z,8.96
2024-05-09T21:34:34.383Z,8.51
2024-05-09T22:04:39.356Z,7.95
2024-05-09T22:34:42.873Z,7.40
2024-05-09T23:04:47.781Z,7.04
2024-05-09T23:34:51.308Z,6.49
